Time;durP1;ratioP1;P1;durP2;ratioP2;P2;SDS_P1;SDS_P2;PMS_P1;PMS_P2;Temp;Humidity;BMP_temperature;BMP_pressure;BME280_temperature;BME280_humidity;BME280_pressure;Samples;Min_cycle;Max_cycle;Signal;HPM_P1;HPM_P2
2021/11/09 00:08:12;;;;;;;24.77;16.03;;;4.70;99.90;;;;;;5118808;28;20402;-93
2021/11/09 00:11:06;;;;;;;28.70;17.30;;;4.60;99.90;;;;;;5117733;28;20446;-93
2021/11/09 00:14:16;;;;;;;22.40;15.30;;;4.70;99.90;;;;;;5081602;28;20451;-93
2021/11/09 00:17:01;;;;;;;19.73;14.90;;;4.60;99.90;;;;;;5084472;28;20536;-93
2021/11/09 00:19:52;;;;;;;28.63;16.87;;;4.50;99.90;;;;;;5103401;28;20515;-92
2021/11/09 00:22:38;;;;;;;19.20;14.77;;;4.50;99.90;;;;;;5105536;28;20470;-93
2021/11/09 00:25:40;;;;;;;27.37;17.80;;;4.40;99.90;;;;;;5104050;28;20517;-94
2021/11/09 00:31:50;;;;;;;22.13;14.67;;;4.30;99.90;;;;;;5114113;28;20445;-93
2021/11/09 01:27:31;;;;;;;20.87;14.70;;;4.60;99.90;;;;;;5053490;28;20851;-87
2021/11/09 01:30:00;;;;;;;19.70;13.77;;;4.60;99.90;;;;;;5057694;28;20452;-92
2021/11/09 01:32:29;;;;;;;23.43;13.77;;;4.60;99.90;;;;;;5043717;28;20463;-92
2021/11/09 01:34:56;;;;;;;15.33;12.73;;;4.60;99.90;;;;;;5036009;28;20484;-93
2021/11/09 01:37:25;;;;;;;14.83;12.43;;;4.70;99.90;;;;;;5036978;28;20523;-93
2021/11/09 01:39:53;;;;;;;18.23;13.63;;;4.60;99.90;;;;;;5037342;28;20461;-92
2021/11/09 01:48:45;;;;;;;20.97;14.77;;;4.60;99.90;;;;;;5029813;28;20443;-93
2021/11/09 01:51:20;;;;;;;21.17;14.40;;;4.50;99.90;;;;;;5027381;28;20482;-93
2021/11/09 01:53:56;;;;;;;18.67;13.70;;;4.50;99.90;;;;;;5032685;28;20456;-91
2021/11/09 01:56:41;;;;;;;17.63;12.80;;;4.50;99.90;;;;;;5034516;28;20856;-93
2021/11/09 02:02:00;;;;;;;17.70;15.80;;;4.50;99.90;;;;;;5034398;28;20507;-92
2021/11/09 02:04:53;;;;;;;20.90;15.13;;;4.50;99.90;;;;;;5041911;28;20448;-93
2021/11/09 02:07:49;;;;;;;22.10;16.60;;;4.50;99.90;;;;;;5018531;28;20476;-92
2021/11/09 02:10:38;;;;;;;23.80;15.20;;;4.50;99.90;;;;;;5019281;28;20989;-93
2021/11/09 02:13:13;;;;;;;24.50;17.20;;;4.50;99.90;;;;;;5035044;28;21013;-92
2021/11/09 02:15:43;;;;;;;17.67;14.13;;;4.50;99.90;;;;;;5039054;28;20435;-92
2021/11/09 02:18:18;;;;;;;19.57;15.63;;;4.50;99.90;;;;;;5047084;28;20473;-92
2021/11/09 02:20:56;;;;;;;16.47;14.77;;;4.60;99.90;;;;;;5035283;28;20559;-92
2021/11/09 02:23:42;;;;;;;28.07;15.37;;;4.60;99.90;;;;;;5034620;28;20514;-93
2021/11/09 02:26:17;;;;;;;20.70;15.27;;;4.60;99.90;;;;;;5034892;28;20461;-93
2021/11/09 02:28:47;;;;;;;18.00;14.53;;;4.60;99.90;;;;;;5050742;28;20479;-92
2021/11/09 02:31:16;;;;;;;20.33;12.90;;;4.60;99.90;;;;;;5053089;28;20480;-90
2021/11/09 02:33:48;;;;;;;22.30;13.70;;;4.70;99.90;;;;;;5059980;28;20453;-93
2021/11/09 02:36:20;;;;;;;19.70;15.33;;;4.70;99.90;;;;;;5044827;28;20453;-93
2021/11/09 02:38:54;;;;;;;15.80;14.03;;;4.70;99.90;;;;;;5042265;28;20430;-93
2021/11/09 02:41:32;;;;;;;23.73;13.80;;;4.70;99.90;;;;;;5041521;28;20468;-94
2021/11/09 02:44:06;;;;;;;18.23;15.03;;;4.70;99.90;;;;;;5049165;28;20498;-92
2021/11/09 02:46:49;;;;;;;21.87;14.57;;;4.70;99.90;;;;;;5059469;28;20433;-93
2021/11/09 02:49:47;;;;;;;20.70;14.47;;;4.70;99.90;;;;;;5058531;28;20465;-92
2021/11/09 02:52:45;;;;;;;18.97;15.37;;;4.80;99.90;;;;;;5041786;28;20469;-92
2021/11/09 02:55:24;;;;;;;23.27;15.30;;;4.80;99.90;;;;;;5040831;28;20546;-92
2021/11/09 03:00:58;;;;;;;23.00;15.90;;;4.80;99.90;;;;;;5035960;28;20444;-89
2021/11/09 03:04:08;;;;;;;18.67;16.13;;;4.80;99.90;;;;;;5044873;28;20448;-91
2021/11/09 03:06:41;;;;;;;23.73;17.10;;;4.80;99.90;;;;;;5058032;28;20460;-90
2021/11/09 03:09:42;;;;;;;23.27;14.77;;;4.80;99.90;;;;;;5044782;28;20448;-91
2021/11/09 03:12:37;;;;;;;20.53;15.23;;;4.80;99.90;;;;;;5038060;28;20469;-92
2021/11/09 03:15:26;;;;;;;24.10;16.47;;;4.70;99.90;;;;;;5039343;28;20510;-92
2021/11/09 03:17:58;;;;;;;21.90;16.40;;;4.70;99.90;;;;;;5052719;28;20472;-93
2021/11/09 03:50:48;;;;;;;21.93;17.37;;;4.10;99.90;;;;;;4875015;29;20456;-89
2021/11/09 04:14:43;;;;;;;26.20;19.47;;;3.80;99.90;;;;;;865890;26;21727;-92
2021/11/09 04:17:24;;;;;;;24.67;18.50;;;3.70;99.90;;;;;;5018469;28;20976;-93
2021/11/09 05:08:18;;;;;;;25.10;19.27;;;3.30;99.90;;;;;;5117289;28;20444;-92
2021/11/09 05:09:08;;;;;;;25.23;17.90;;;3.20;99.90;;;;;;5096224;28;20476;-92
2021/11/09 05:22:11;;;;;;;25.40;18.80;;;3.00;99.90;;;;;;5020726;28;20627;-92
2021/11/09 05:45:10;;;;;;;22.87;18.57;;;2.80;99.90;;;;;;4903944;28;20445;-93
2021/11/09 05:54:24;;;;;;;29.27;19.23;;;2.80;99.90;;;;;;5081548;28;20432;-94
2021/11/09 05:56:51;;;;;;;36.87;20.17;;;2.80;99.90;;;;;;5081625;28;20492;-93
2021/11/09 05:59:21;;;;;;;25.70;19.13;;;2.80;99.90;;;;;;5106881;28;20922;-93
2021/11/09 06:02:13;;;;;;;30.70;19.47;;;2.80;99.90;;;;;;5095974;28;20468;-92
2021/11/09 06:04:54;;;;;;;32.03;19.77;;;2.80;99.90;;;;;;5112434;28;20452;-93
2021/11/09 06:07:25;;;;;;;35.67;18.50;;;2.70;99.90;;;;;;5106112;28;20449;-90
2021/11/09 06:23:00;;;;;;;33.60;21.10;;;2.60;99.90;;;;;;5118415;28;20449;-92
2021/11/09 06:25:27;;;;;;;34.73;22.60;;;2.60;99.90;;;;;;5129131;28;20208;-91
2021/11/09 06:27:55;;;;;;;36.50;24.30;;;2.70;99.90;;;;;;5123289;28;20447;-89
2021/11/09 06:30:24;;;;;;;37.63;22.60;;;2.70;99.90;;;;;;5108825;28;20446;-91
2021/11/09 06:32:50;;;;;;;31.40;21.58;;;2.60;99.90;;;;;;5112468;28;20480;-89
2021/11/09 06:35:18;;;;;;;33.77;21.53;;;2.60;99.90;;;;;;5109021;28;20203;-90
2021/11/09 06:37:47;;;;;;;40.17;20.13;;;2.60;99.90;;;;;;5104943;28;20530;-92
2021/11/09 06:40:20;;;;;;;32.57;20.90;;;2.60;99.90;;;;;;5100258;28;20447;-91
2021/11/09 06:45:43;;;;;;;29.70;21.50;;;2.60;99.90;;;;;;5099914;28;20477;-91
2021/11/09 06:48:12;;;;;;;30.60;19.17;;;2.60;99.90;;;;;;5100493;28;20804;-90
2021/11/09 06:50:52;;;;;;;27.80;19.23;;;2.70;99.90;;;;;;5114119;28;20459;-88
2021/11/09 06:53:22;;;;;;;28.67;20.57;;;2.70;99.90;;;;;;5099578;28;20432;-90
2021/11/09 06:55:52;;;;;;;32.70;20.80;;;2.70;99.90;;;;;;5097645;28;20459;-90
2021/11/09 06:58:21;;;;;;;29.83;19.97;;;2.70;99.90;;;;;;5100564;28;20570;-89
2021/11/09 07:00:50;;;;;;;33.55;19.85;;;2.70;99.90;;;;;;5095516;28;20822;-89
2021/11/09 07:03:20;;;;;;;40.53;19.03;;;2.80;99.90;;;;;;5098710;28;20194;-89
2021/11/09 07:05:49;;;;;;;34.13;22.03;;;2.80;99.90;;;;;;5096897;28;20441;-89
2021/11/09 07:08:18;;;;;;;41.13;22.52;;;2.80;99.90;;;;;;5097567;28;20466;-90
2021/11/09 07:10:48;;;;;;;29.20;21.02;;;2.90;99.90;;;;;;5098600;28;20228;-88
2021/11/09 07:13:17;;;;;;;35.50;22.87;;;2.90;99.90;;;;;;5099053;28;20195;-90
2021/11/09 07:15:46;;;;;;;36.60;25.23;;;2.90;99.90;;;;;;5097473;28;20578;-91
2021/11/09 07:18:18;;;;;;;41.83;24.50;;;3.00;99.90;;;;;;5099834;28;20921;-90
2021/11/09 07:20:50;;;;;;;40.23;20.17;;;3.00;99.90;;;;;;5113994;28;20430;-87
2021/11/09 07:23:17;;;;;;;33.13;20.57;;;3.10;99.90;;;;;;5098792;28;20446;-90
2021/11/09 07:25:48;;;;;;;27.90;21.67;;;3.10;99.90;;;;;;5109641;28;20457;-89
2021/11/09 07:28:21;;;;;;;32.03;21.30;;;3.10;99.90;;;;;;5118008;28;20469;-89
2021/11/09 07:30:57;;;;;;;24.40;19.90;;;3.20;99.90;;;;;;5107466;28;20439;-85
2021/11/09 07:33:26;;;;;;;30.30;22.47;;;3.30;99.90;;;;;;5095298;28;20521;-85
2021/11/09 07:35:53;;;;;;;29.97;20.07;;;3.40;99.90;;;;;;5096145;28;20450;-85
2021/11/09 07:38:20;;;;;;;31.77;20.73;;;3.40;99.90;;;;;;5095071;28;20982;-84
2021/11/09 07:40:52;;;;;;;29.60;24.70;;;3.40;99.90;;;;;;5095059;28;20549;-85
2021/11/09 07:43:21;;;;;;;39.67;25.67;;;3.50;99.90;;;;;;5093716;28;20498;-85
2021/11/09 07:45:48;;;;;;;43.13;23.37;;;3.60;99.90;;;;;;5093166;28;20447;-86
2021/11/09 07:48:18;;;;;;;29.07;21.90;;;3.70;99.90;;;;;;5109636;28;20447;-84
2021/11/09 07:50:48;;;;;;;34.03;23.23;;;3.80;99.90;;;;;;5106058;28;20495;-85
2021/11/09 07:53:22;;;;;;;28.93;20.60;;;3.80;99.90;;;;;;5097243;28;20448;-86
2021/11/09 07:55:51;;;;;;;32.30;22.93;;;3.80;99.90;;;;;;5104245;28;20446;-86
2021/11/09 07:58:23;;;;;;;29.53;22.23;;;3.90;99.90;;;;;;5119423;28;20466;-85
2021/11/09 08:00:56;;;;;;;29.50;21.03;;;4.00;99.90;;;;;;5119017;28;20771;-85
2021/11/09 08:03:34;;;;;;;35.40;22.57;;;4.10;99.90;;;;;;5118371;28;20466;-84
2021/11/09 08:06:12;;;;;;;33.83;23.27;;;4.10;99.90;;;;;;5115035;28;20437;-84
2021/11/09 08:08:45;;;;;;;30.90;22.73;;;4.20;99.90;;;;;;5102232;28;20501;-85
2021/11/09 08:11:12;;;;;;;42.67;23.47;;;4.30;99.90;;;;;;5102153;28;20465;-85
2021/11/09 08:13:39;;;;;;;44.50;24.97;;;4.40;99.90;;;;;;5100248;28;20439;-83
2021/11/09 08:16:08;;;;;;;30.70;20.83;;;4.60;99.90;;;;;;5105984;28;20451;-83
2021/11/09 08:18:35;;;;;;;25.30;20.00;;;4.70;99.90;;;;;;5111638;28;20470;-84
2021/11/09 08:21:02;;;;;;;30.77;20.70;;;4.70;99.90;;;;;;5114908;28;20445;-84
2021/11/09 08:23:29;;;;;;;30.90;20.27;;;4.90;99.90;;;;;;5104206;28;20435;-83
2021/11/09 08:25:56;;;;;;;24.60;19.23;;;5.50;99.90;;;;;;5117259;28;20441;-83
2021/11/09 08:28:24;;;;;;;31.00;20.30;;;5.70;99.90;;;;;;5099742;28;20441;-85
2021/11/09 08:30:53;;;;;;;24.17;17.90;;;6.30;99.90;;;;;;5094175;28;20447;-84
2021/11/09 08:33:25;;;;;;;27.90;18.90;;;6.70;99.90;;;;;;5092460;28;20809;-85
2021/11/09 08:35:52;;;;;;;34.33;18.63;;;7.20;99.90;;;;;;5090547;28;20476;-85
2021/11/09 08:38:19;;;;;;;25.40;16.53;;;7.40;99.90;;;;;;5109254;28;20508;-85
2021/11/09 08:40:46;;;;;;;24.60;16.90;;;7.70;99.90;;;;;;5098102;28;20454;-84
2021/11/09 08:43:19;;;;;;;29.77;17.50;;;8.40;99.90;;;;;;5098049;28;20445;-85
2021/11/09 08:45:52;;;;;;;21.27;17.40;;;8.90;99.90;;;;;;5097817;28;20963;-84
2021/11/09 08:48:24;;;;;;;22.40;15.40;;;9.20;99.90;;;;;;5094593;28;20460;-85
2021/11/09 08:50:54;;;;;;;17.93;15.93;;;9.30;99.90;;;;;;5094058;28;20535;-85
2021/11/09 08:53:24;;;;;;;22.43;16.40;;;9.70;99.90;;;;;;5096946;28;20453;-85
2021/11/09 08:56:20;;;;;;;23.47;16.70;;;9.60;99.90;;;;;;5093044;28;20442;-84
2021/11/09 09:04:25;;;;;;;18.20;15.23;;;9.30;99.90;;;;;;5093478;28;20540;-86
2021/11/09 09:06:54;;;;;;;22.57;14.70;;;10.30;99.90;;;;;;5091565;28;20449;-86
2021/11/09 09:09:21;;;;;;;18.77;13.37;;;10.90;99.70;;;;;;5094176;28;20435;-88
2021/11/09 09:11:49;;;;;;;19.57;14.57;;;11.30;98.50;;;;;;5097182;28;20836;-88
2021/11/09 09:14:18;;;;;;;15.70;13.63;;;11.10;97.90;;;;;;5106984;28;20431;-88
2021/11/09 09:16:46;;;;;;;16.57;13.17;;;11.10;97.90;;;;;;5110777;28;20450;-90
2021/11/09 09:19:14;;;;;;;18.70;14.97;;;11.60;97.90;;;;;;5104915;28;20496;-90
2021/11/09 09:21:46;;;;;;;16.80;13.40;;;11.50;96.70;;;;;;5109927;28;20431;-88
2021/11/09 09:24:25;;;;;;;16.30;12.73;;;11.50;96.90;;;;;;5115714;28;20434;-91
2021/11/09 09:26:57;;;;;;;18.33;13.07;;;11.40;96.60;;;;;;5098192;28;20446;-90
2021/11/09 09:32:39;;;;;;;16.90;15.10;;;11.00;96.80;;;;;;5036456;28;20462;-89
2021/11/09 09:54:40;;;;;;;6.47;4.93;;;15.00;85.80;;;;;;5100559;28;20507;-92
2021/11/09 09:57:11;;;;;;;7.60;5.30;;;14.80;79.90;;;;;;5102948;28;20464;-90
2021/11/09 09:59:51;;;;;;;12.90;6.90;;;16.20;81.00;;;;;;5120828;28;20512;-91
2021/11/09 10:02:25;;;;;;;7.87;4.90;;;17.90;75.20;;;;;;5106999;28;20485;-92
2021/11/09 10:05:04;;;;;;;8.97;5.70;;;18.10;68.30;;;;;;5099126;28;20482;-92
2021/11/09 10:07:34;;;;;;;10.83;5.13;;;16.00;70.00;;;;;;5118008;28;20541;-91
2021/11/09 10:10:15;;;;;;;8.00;5.03;;;15.30;72.70;;;;;;5120236;28;20445;-92
2021/11/09 10:12:45;;;;;;;7.00;5.27;;;16.20;72.80;;;;;;5077860;28;20546;-91
2021/11/09 10:15:16;;;;;;;8.13;4.40;;;16.50;71.00;;;;;;5077063;28;20475;-91
2021/11/09 10:17:46;;;;;;;4.80;4.30;;;17.00;69.70;;;;;;5118199;28;20454;-92
2021/11/09 10:20:16;;;;;;;7.73;4.97;;;17.00;69.20;;;;;;5127380;28;20491;-89
2021/11/09 10:22:52;;;;;;;9.80;5.57;;;17.80;67.30;;;;;;5081440;28;20485;-92
2021/11/09 10:25:31;;;;;;;10.03;5.37;;;19.00;64.80;;;;;;5079938;28;20817;-91
2021/11/09 10:28:03;;;;;;;8.63;5.10;;;19.60;62.90;;;;;;5134000;28;20449;-92
2021/11/09 10:30:33;;;;;;;8.07;5.37;;;19.90;60.10;;;;;;5117242;28;20450;-92
2021/11/09 10:33:03;;;;;;;5.90;4.70;;;21.60;58.00;;;;;;5098483;28;20465;-91
2021/11/09 10:35:40;;;;;;;6.97;4.60;;;22.30;55.80;;;;;;5099177;28;20499;-89
2021/11/09 10:38:08;;;;;;;8.93;4.60;;;22.50;53.90;;;;;;5117508;28;20440;-88
2021/11/09 10:40:43;;;;;;;5.63;3.90;;;21.60;53.80;;;;;;5116008;28;20463;-89
2021/11/09 10:43:12;;;;;;;7.50;4.23;;;20.90;54.50;;;;;;5097929;28;20848;-85
2021/11/09 10:45:40;;;;;;;6.57;3.80;;;20.50;54.30;;;;;;5115577;28;20419;-89
2021/11/09 10:48:08;;;;;;;8.00;3.93;;;18.90;56.30;;;;;;5093349;28;20440;-89
2021/11/09 10:50:43;;;;;;;6.27;3.27;;;19.60;57.30;;;;;;5094350;28;20800;-88
2021/11/09 10:53:14;;;;;;;3.90;3.50;;;20.90;55.80;;;;;;5091510;28;20463;-88
2021/11/09 10:55:59;;;;;;;5.20;4.10;;;21.10;54.50;;;;;;5104411;28;20445;-87
2021/11/09 10:58:52;;;;;;;5.97;4.83;;;22.60;52.10;;;;;;5116552;28;20446;-88
2021/11/09 11:04:13;;;;;;;5.90;3.60;;;21.60;52.50;;;;;;5110495;28;20508;-90
2021/11/09 11:06:42;;;;;;;6.20;4.00;;;20.40;53.00;;;;;;5107252;28;20449;-89
2021/11/09 11:09:19;;;;;;;8.63;3.50;;;20.20;54.00;;;;;;5103792;28;20480;-90
2021/11/09 11:11:48;;;;;;;6.33;3.93;;;19.80;54.20;;;;;;5101323;28;20548;-90
2021/11/09 11:14:17;;;;;;;8.60;3.73;;;19.60;55.10;;;;;;5107174;28;20804;-89
2021/11/09 11:16:46;;;;;;;5.43;4.83;;;19.80;55.30;;;;;;5119590;28;20450;-87
2021/11/09 11:19:15;;;;;;;6.03;3.87;;;19.50;54.90;;;;;;5116723;28;20459;-87
2021/11/09 11:21:43;;;;;;;4.80;3.33;;;19.70;54.50;;;;;;5115143;28;20452;-87
2021/11/09 11:24:23;;;;;;;13.97;4.17;;;19.40;54.90;;;;;;5112356;28;20451;-88
2021/11/09 11:26:52;;;;;;;6.10;4.10;;;18.80;55.70;;;;;;5104679;28;20446;-87
2021/11/09 11:29:24;;;;;;;6.47;3.90;;;18.60;56.20;;;;;;5107756;28;20441;-87
2021/11/09 11:31:52;;;;;;;4.63;3.23;;;18.30;56.90;;;;;;5118971;28;20450;-85
2021/11/09 11:34:20;;;;;;;4.23;3.80;;;18.60;56.90;;;;;;5118388;28;20509;-87
2021/11/09 11:36:48;;;;;;;6.47;3.63;;;19.10;56.60;;;;;;5114244;28;20436;-86
2021/11/09 11:39:16;;;;;;;8.10;4.60;;;18.90;56.50;;;;;;5103476;28;20472;-88
2021/11/09 11:41:45;;;;;;;6.03;3.70;;;19.40;55.80;;;;;;5102888;28;20467;-88
2021/11/09 11:44:20;;;;;;;6.37;5.73;;;19.40;55.30;;;;;;5097688;28;20460;-88
2021/11/09 11:46:53;;;;;;;3.50;3.20;;;20.10;55.10;;;;;;5099966;28;20466;-87
2021/11/09 11:49:25;;;;;;;5.27;3.10;;;20.20;54.00;;;;;;5103211;28;20432;-87
2021/11/09 11:52:19;;;;;;;6.80;3.30;;;21.00;54.00;;;;;;5098018;28;20475;-89
2021/11/09 11:55:04;;;;;;;5.23;3.80;;;22.20;51.60;;;;;;5100458;28;20441;-87
2021/11/09 11:58:00;;;;;;;3.67;3.07;;;22.10;50.90;;;;;;5115658;28;20433;-87
2021/11/09 12:00:48;;;;;;;7.20;3.20;;;22.20;50.40;;;;;;5097183;28;20496;-88
2021/11/09 12:03:35;;;;;;;8.30;2.97;;;22.60;50.10;;;;;;5117828;28;20426;-86
2021/11/09 12:06:15;;;;;;;7.43;3.60;;;22.80;49.30;;;;;;5113899;28;20541;-87
2021/11/09 12:08:45;;;;;;;6.70;2.83;;;22.60;49.40;;;;;;5103603;28;20478;-88
2021/11/09 12:11:35;;;;;;;8.23;3.20;;;22.60;49.50;;;;;;5102296;28;20924;-86
2021/11/09 12:14:04;;;;;;;5.87;3.47;;;21.70;50.40;;;;;;5097542;28;20446;-88
2021/11/09 12:16:46;;;;;;;7.33;2.83;;;22.20;50.00;;;;;;5101471;28;20443;-87
2021/11/09 12:20:02;;;;;;;5.30;3.27;;;22.70;49.20;;;;;;5097984;28;20482;-86
2021/11/09 12:22:44;;;;;;;6.67;2.73;;;23.50;48.40;;;;;;5108643;28;20450;-86
2021/11/09 12:25:15;;;;;;;4.50;3.07;;;22.10;48.20;;;;;;5099846;28;20441;-87
2021/11/09 12:28:01;;;;;;;4.43;2.80;;;21.30;49.70;;;;;;5098275;28;20527;-87
2021/11/09 12:30:42;;;;;;;4.23;2.60;;;20.70;49.90;;;;;;5086891;28;20438;-87
2021/11/09 12:33:14;;;;;;;6.60;2.70;;;19.90;51.20;;;;;;5100709;28;21005;-87
2021/11/09 12:35:41;;;;;;;5.37;2.80;;;20.00;51.80;;;;;;5096671;28;20447;-87
2021/11/09 12:38:14;;;;;;;3.03;2.30;;;19.50;52.10;;;;;;5095563;28;20497;-86
2021/11/09 12:40:49;;;;;;;5.50;2.90;;;18.90;53.00;;;;;;5094815;28;20852;-88
2021/11/09 12:43:18;;;;;;;5.50;2.90;;;17.80;54.00;;;;;;5098069;28;20470;-87
2021/11/09 12:45:49;;;;;;;7.30;2.73;;;16.30;56.60;;;;;;5094846;28;20453;-87
2021/11/09 12:48:23;;;;;;;2.93;2.20;;;15.50;58.70;;;;;;5109281;28;20435;-87
2021/11/09 12:50:53;;;;;;;4.10;2.70;;;15.20;59.40;;;;;;5090861;28;20930;-87
2021/11/09 12:53:22;;;;;;;7.03;3.10;;;14.80;60.90;;;;;;5097007;28;20443;-86
2021/11/09 12:56:07;;;;;;;3.80;2.77;;;14.30;62.30;;;;;;5094171;28;20473;-87
2021/11/09 12:58:37;;;;;;;2.83;2.43;;;14.20;63.80;;;;;;5095438;28;20453;-86
2021/11/09 13:01:21;;;;;;;4.03;2.90;;;13.90;63.80;;;;;;5102896;28;20469;-87
2021/11/09 13:03:59;;;;;;;4.70;2.10;;;13.80;64.30;;;;;;5095132;28;20467;-88
2021/11/09 13:06:45;;;;;;;5.47;3.00;;;13.90;65.10;;;;;;5101060;28;20424;-86
2021/11/09 13:09:19;;;;;;;4.60;2.67;;;14.10;64.20;;;;;;5116559;28;20410;-87
2021/11/09 13:11:50;;;;;;;5.63;3.73;;;14.70;64.40;;;;;;5114905;28;20522;-87
2021/11/09 13:14:19;;;;;;;5.27;2.50;;;15.90;61.20;;;;;;5105720;28;20510;-87
2021/11/09 13:16:49;;;;;;;6.90;3.37;;;16.80;58.80;;;;;;5115048;28;20449;-87
2021/11/09 13:19:23;;;;;;;7.40;2.80;;;17.50;57.70;;;;;;5104434;28;20825;-86
2021/11/09 13:22:07;;;;;;;4.40;2.90;;;18.10;56.50;;;;;;5118080;28;20470;-84
2021/11/09 13:24:34;;;;;;;3.67;2.47;;;18.30;55.70;;;;;;5099714;28;20435;-85
2021/11/09 13:27:01;;;;;;;5.40;2.60;;;17.30;56.30;;;;;;5094975;28;20451;-86
2021/11/09 13:29:28;;;;;;;3.70;2.50;;;16.70;57.60;;;;;;5092827;28;20435;-86
2021/11/09 13:31:55;;;;;;;5.30;2.67;;;16.40;58.00;;;;;;5105719;28;20504;-86
2021/11/09 13:34:25;;;;;;;6.50;2.43;;;16.10;58.70;;;;;;5115519;28;20431;-86
2021/11/09 13:36:55;;;;;;;5.30;2.63;;;16.10;59.00;;;;;;5100425;28;20430;-85
2021/11/09 13:39:22;;;;;;;4.40;2.37;;;15.60;59.10;;;;;;5110554;28;20473;-85
2021/11/09 13:41:49;;;;;;;3.30;2.80;;;15.10;59.70;;;;;;5107748;28;20968;-87
2021/11/09 13:44:16;;;;;;;3.73;2.23;;;14.70;61.80;;;;;;5111712;28;20430;-87
2021/11/09 13:46:45;;;;;;;4.80;2.57;;;14.40;63.10;;;;;;5100172;28;20445;-86
2021/11/09 13:49:14;;;;;;;7.63;2.60;;;14.40;63.30;;;;;;5094900;28;20893;-87
2021/11/09 13:51:48;;;;;;;3.40;2.10;;;14.40;63.40;;;;;;5096630;28;20460;-87
2021/11/09 13:54:19;;;;;;;3.57;2.43;;;14.40;63.20;;;;;;5097326;28;20437;-87
2021/11/09 13:56:48;;;;;;;7.23;4.03;;;14.40;62.90;;;;;;5099362;28;20460;-87
2021/11/09 13:59:17;;;;;;;5.77;4.50;;;14.10;64.10;;;;;;5095908;28;20444;-87
2021/11/09 14:01:51;;;;;;;5.00;2.93;;;14.30;64.40;;;;;;5097866;28;20543;-87
2021/11/09 14:04:38;;;;;;;4.63;2.93;;;14.40;63.80;;;;;;5095133;28;20444;-87
2021/11/09 14:13:26;;;;;;;2.83;1.93;;;14.10;64.30;;;;;;5093524;28;20437;-90
2021/11/09 14:18:52;;;;;;;5.97;2.63;;;13.40;65.80;;;;;;5001831;28;20509;-86
2021/11/09 14:21:30;;;;;;;7.23;3.20;;;13.40;65.80;;;;;;5073780;28;20484;-87
2021/11/09 14:23:58;;;;;;;7.53;3.40;;;13.40;66.20;;;;;;5092848;28;20457;-87
2021/11/09 14:26:27;;;;;;;3.40;2.80;;;13.50;66.10;;;;;;5092828;28;20439;-84
2021/11/09 14:28:55;;;;;;;3.30;2.20;;;13.40;65.90;;;;;;5093165;28;20437;-87
2021/11/09 14:31:26;;;;;;;3.57;2.27;;;13.10;66.60;;;;;;5095876;28;20462;-88
2021/11/09 14:33:54;;;;;;;4.57;3.10;;;12.70;67.40;;;;;;5096465;28;20479;-90
2021/11/09 14:36:23;;;;;;;4.30;2.77;;;12.50;68.90;;;;;;5101569;28;20533;-87
2021/11/09 14:38:52;;;;;;;6.47;3.00;;;12.90;69.40;;;;;;5100185;28;20525;-89
2021/11/09 14:41:25;;;;;;;5.73;3.00;;;13.30;67.70;;;;;;5099003;28;20479;-89
2021/11/09 14:43:58;;;;;;;7.80;2.80;;;13.50;66.80;;;;;;5105204;28;20476;-83
2021/11/09 14:46:28;;;;;;;3.83;2.77;;;13.20;66.20;;;;;;5107636;28;20439;-87
2021/11/09 14:49:05;;;;;;;3.60;2.37;;;12.90;66.90;;;;;;5094599;28;20439;-86
2021/11/09 14:51:34;;;;;;;6.83;3.47;;;12.40;68.30;;;;;;5095823;28;20455;-87
2021/11/09 14:54:13;;;;;;;4.70;2.80;;;12.10;69.80;;;;;;5115705;28;20447;-89
2021/11/09 14:56:42;;;;;;;5.90;2.93;;;12.00;70.60;;;;;;5115097;28;20531;-90
2021/11/09 14:59:10;;;;;;;6.23;4.10;;;11.90;70.90;;;;;;5118294;28;20430;-91
2021/11/09 15:01:41;;;;;;;6.77;3.10;;;11.90;71.20;;;;;;5120216;28;20474;-90
2021/11/09 15:04:15;;;;;;;8.43;3.93;;;11.70;71.30;;;;;;5119524;28;20438;-91
2021/11/09 15:06:54;;;;;;;5.20;2.90;;;11.60;72.00;;;;;;5118729;28;20463;-91
2021/11/09 15:12:26;;;;;;;6.23;3.23;;;11.60;72.50;;;;;;5111270;28;20437;-91
2021/11/09 15:26:44;;;;;;;5.80;3.10;;;11.10;74.50;;;;;;5075749;28;20436;-89
2021/11/09 15:29:16;;;;;;;9.37;3.17;;;11.10;74.70;;;;;;5056090;28;20815;-89
2021/11/09 15:31:48;;;;;;;4.40;2.70;;;10.90;75.00;;;;;;5055840;28;20476;-87
2021/11/09 15:34:24;;;;;;;5.03;3.00;;;10.90;75.70;;;;;;5044452;28;20463;-87
2021/11/09 15:37:10;;;;;;;4.20;3.07;;;10.90;75.90;;;;;;5042841;28;20459;-87
2021/11/09 15:39:37;;;;;;;5.90;3.40;;;10.70;76.00;;;;;;5042872;28;20546;-88
2021/11/09 15:42:04;;;;;;;6.03;3.53;;;10.60;76.90;;;;;;5041904;28;20458;-89
2021/11/09 15:44:32;;;;;;;5.40;2.93;;;10.50;77.60;;;;;;5043561;28;21332;-87
2021/11/09 15:46:59;;;;;;;6.27;2.90;;;10.40;78.40;;;;;;5041932;28;20880;-87
2021/11/09 15:49:28;;;;;;;6.03;3.33;;;10.30;78.40;;;;;;5043396;28;20455;-87
2021/11/09 15:51:55;;;;;;;4.57;3.07;;;10.20;78.70;;;;;;5041685;28;20484;-86
2021/11/09 15:54:23;;;;;;;3.43;2.70;;;10.20;79.40;;;;;;5040326;28;20584;-87
2021/11/09 15:56:50;;;;;;;5.13;3.03;;;10.10;79.50;;;;;;5040818;28;20540;-87
2021/11/09 15:59:18;;;;;;;3.77;3.00;;;10.00;79.90;;;;;;5039302;28;20476;-89
2021/11/09 16:01:46;;;;;;;5.93;3.40;;;10.00;80.20;;;;;;5043651;28;20524;-87
2021/11/09 16:04:14;;;;;;;3.60;3.03;;;9.90;82.10;;;;;;5040275;28;20523;-87
2021/11/09 16:06:43;;;;;;;8.37;5.33;;;9.90;82.30;;;;;;5043057;28;20448;-87
2021/11/09 16:09:17;;;;;;;6.33;4.10;;;9.80;82.50;;;;;;5045770;28;20447;-92
2021/11/09 16:11:45;;;;;;;8.23;5.73;;;9.80;82.60;;;;;;5053477;28;21073;-88
2021/11/09 16:14:12;;;;;;;6.13;5.53;;;9.70;82.80;;;;;;5055938;28;20440;-88
2021/11/09 16:16:39;;;;;;;11.00;7.17;;;9.70;83.10;;;;;;5052948;28;20441;-89
2021/11/09 16:19:08;;;;;;;11.37;6.30;;;9.70;83.90;;;;;;5051885;28;20434;-89
2021/11/09 16:21:35;;;;;;;8.60;5.70;;;9.70;84.00;;;;;;5062990;28;20525;-87
2021/11/09 16:24:03;;;;;;;9.80;6.43;;;9.60;84.30;;;;;;5055925;28;20460;-88
2021/11/09 16:26:30;;;;;;;10.90;6.57;;;9.50;85.10;;;;;;5045824;28;20520;-88
2021/11/09 16:28:56;;;;;;;5.63;5.07;;;9.40;85.50;;;;;;5057462;28;20426;-88
2021/11/09 16:31:23;;;;;;;8.63;5.53;;;9.40;86.00;;;;;;5043810;28;20477;-88
2021/11/09 16:33:54;;;;;;;7.77;4.80;;;9.40;86.30;;;;;;5038588;28;20476;-88
2021/11/09 16:36:23;;;;;;;9.90;7.07;;;9.30;86.20;;;;;;5039043;28;20459;-88
2021/11/09 16:38:53;;;;;;;6.90;5.77;;;9.30;86.80;;;;;;5037063;28;20441;-89
2021/11/09 16:41:22;;;;;;;9.93;5.73;;;9.20;87.10;;;;;;5036490;28;20449;-87
2021/11/09 16:43:52;;;;;;;8.00;6.23;;;9.10;87.60;;;;;;5037313;28;20469;-89
2021/11/09 16:46:27;;;;;;;7.13;5.57;;;9.10;88.30;;;;;;5038029;28;20449;-90
2021/11/09 16:49:04;;;;;;;8.40;5.13;;;8.90;88.70;;;;;;5037799;28;20449;-89
2021/11/09 16:51:34;;;;;;;7.13;5.60;;;8.80;89.40;;;;;;5037510;28;20476;-88
2021/11/09 16:54:05;;;;;;;8.83;4.90;;;8.70;90.10;;;;;;5047334;28;20449;-86
2021/11/09 16:56:43;;;;;;;7.83;5.43;;;8.70;90.20;;;;;;5046428;28;20461;-88
2021/11/09 17:02:27;;;;;;;7.33;5.10;;;8.70;90.60;;;;;;5015519;28;20474;-88
2021/11/09 18:20:10;;;;;;;12.53;7.10;;;7.80;96.50;;;;;;5034389;28;20429;-91
2021/11/09 18:22:39;;;;;;;10.17;5.47;;;7.90;96.70;;;;;;5070359;28;20504;-91
2021/11/09 18:25:09;;;;;;;11.47;6.43;;;7.80;96.90;;;;;;5077975;28;20443;-93
2021/11/09 18:27:36;;;;;;;7.93;6.90;;;7.70;97.20;;;;;;5089358;28;20480;-91
2021/11/09 18:30:05;;;;;;;12.50;5.90;;;7.60;97.40;;;;;;5083501;28;20432;-86
2021/11/09 18:32:32;;;;;;;8.67;6.30;;;7.60;97.70;;;;;;5071511;28;20486;-83
2021/11/09 18:34:59;;;;;;;9.67;7.30;;;7.60;98.10;;;;;;5074221;28;20493;-82
2021/11/09 18:37:27;;;;;;;13.87;8.77;;;7.70;98.40;;;;;;5079144;28;20436;-82
2021/11/09 18:39:55;;;;;;;17.70;9.00;;;7.60;98.60;;;;;;5079057;28;20466;-83
2021/11/09 18:42:26;;;;;;;15.43;10.87;;;7.60;99.10;;;;;;5077268;28;20489;-85
2021/11/09 18:44:53;;;;;;;13.17;8.90;;;7.70;99.20;;;;;;5081405;28;20439;-89
2021/11/09 18:47:22;;;;;;;11.10;9.70;;;7.70;99.40;;;;;;5073097;28;20420;-88
2021/11/09 18:49:49;;;;;;;11.53;9.00;;;7.60;99.60;;;;;;5074124;28;20452;-91
2021/11/09 18:52:21;;;;;;;15.73;10.17;;;7.50;99.90;;;;;;5072683;28;20476;-92
2021/11/09 18:54:48;;;;;;;16.20;10.43;;;7.50;99.90;;;;;;5079428;28;20440;-93
2021/11/09 18:57:18;;;;;;;16.80;11.73;;;7.40;99.90;;;;;;5075937;28;20471;-92
2021/11/09 18:59:48;;;;;;;13.07;10.80;;;7.40;99.90;;;;;;5069889;28;20451;-92
2021/11/09 19:02:15;;;;;;;12.70;9.33;;;7.30;99.90;;;;;;5071827;28;20447;-93
2021/11/09 19:04:44;;;;;;;12.20;9.57;;;7.40;99.90;;;;;;5082625;28;20531;-93
2021/11/09 19:07:11;;;;;;;8.90;8.00;;;7.20;99.90;;;;;;5077177;28;20441;-93
2021/11/09 19:09:39;;;;;;;11.20;8.43;;;7.20;99.90;;;;;;5084596;28;20507;-92
2021/11/09 19:12:07;;;;;;;12.07;9.30;;;7.20;99.90;;;;;;5094036;28;20472;-93
2021/11/09 19:14:37;;;;;;;12.43;8.20;;;7.20;99.90;;;;;;5082537;28;20468;-93